Time;durP1;ratioP1;P1;durP2;ratioP2;P2;SDS_P1;SDS_P2;PMS_P1;PMS_P2;Temp;Humidity;BMP_temperature;BMP_pressure;BME280_temperature;BME280_humidity;BME280_pressure;Samples;Min_cycle;Max_cycle;Signal;HPM_P1;HPM_P2
2022/10/26 00:01:27;;;;;;;15.52;6.18;;;;;;;11.98;52.55;101680.31;7388961;19;20006;-66
2022/10/26 00:03:54;;;;;;;14.10;6.68;;;;;;;12.02;52.52;101683.19;7391895;19;19991;-66
2022/10/26 00:06:24;;;;;;;13.35;6.00;;;;;;;11.98;52.63;101679.50;7390605;19;19998;-65
2022/10/26 00:08:50;;;;;;;16.90;6.68;;;;;;;12.04;52.63;101683.69;7390252;19;20002;-67
2022/10/26 00:11:18;;;;;;;14.93;6.32;;;;;;;12.19;52.13;101688.56;7389203;19;19999;-67
2022/10/26 00:13:45;;;;;;;16.15;6.80;;;;;;;12.22;51.78;101684.38;7388941;19;20066;-67
2022/10/26 00:16:23;;;;;;;12.32;6.30;;;;;;;12.37;51.20;101691.19;7389025;19;20002;-65
2022/10/26 00:18:49;;;;;;;12.20;6.43;;;;;;;12.38;50.97;101681.88;7388529;19;20482;-66
2022/10/26 00:21:15;;;;;;;13.07;6.20;;;;;;;12.37;50.99;101688.47;7388816;19;20013;-65
2022/10/26 00:23:41;;;;;;;12.52;5.80;;;;;;;12.45;50.86;101682.13;7391244;19;20006;-66
2022/10/26 00:26:08;;;;;;;16.73;6.82;;;;;;;12.44;50.72;101686.03;7390626;19;20062;-67
2022/10/26 00:28:34;;;;;;;14.45;6.78;;;;;;;12.46;50.56;101691.97;7388672;19;19999;-66
2022/10/26 00:31:10;;;;;;;15.32;6.55;;;;;;;12.38;50.87;101690.06;7386941;19;20062;-65
2022/10/26 00:33:36;;;;;;;12.38;6.32;;;;;;;11.99;51.79;101686.56;7390171;19;20018;-66
2022/10/26 00:36:02;;;;;;;17.20;6.80;;;;;;;11.97;51.84;101697.06;7389297;19;20009;-66
2022/10/26 00:38:28;;;;;;;15.02;6.55;;;;;;;11.90;51.88;101694.03;7388633;19;20083;-65
2022/10/26 00:40:54;;;;;;;15.75;6.68;;;;;;;12.06;51.46;101697.00;7389333;19;19999;-65
2022/10/26 00:43:22;;;;;;;13.85;7.15;;;;;;;12.14;51.20;101693.41;7391385;19;20010;-66
2022/10/26 00:45:50;;;;;;;18.20;8.20;;;;;;;12.10;51.36;101698.75;7396254;19;20022;-66
2022/10/26 00:48:26;;;;;;;16.13;6.72;;;;;;;11.82;51.76;101696.44;7396751;19;20013;-65
2022/10/26 00:50:53;;;;;;;15.63;6.85;;;;;;;11.76;52.07;101695.03;7395030;19;20003;-65
2022/10/26 00:53:18;;;;;;;15.63;7.57;;;;;;;11.66;52.00;101698.13;7397812;19;20028;-65
2022/10/26 00:55:48;;;;;;;19.45;7.13;;;;;;;11.77;52.05;101693.91;7396644;19;20406;-66
2022/10/26 00:58:15;;;;;;;13.85;7.60;;;;;;;11.81;52.14;101697.56;7395083;19;20005;-66
2022/10/26 01:00:42;;;;;;;18.05;9.25;;;;;;;11.90;52.10;101688.56;7396044;19;20028;-67
2022/10/26 01:03:09;;;;;;;17.67;9.23;;;;;;;12.00;52.13;101693.66;7396600;19;20486;-67
2022/10/26 01:05:39;;;;;;;21.85;8.68;;;;;;;11.99;51.88;101687.41;7396550;19;19995;-66
2022/10/26 01:08:06;;;;;;;19.67;9.10;;;;;;;11.86;51.94;101685.69;7395892;19;19998;-67
2022/10/26 01:10:33;;;;;;;18.67;8.55;;;;;;;11.92;51.92;101683.56;7394886;19;20012;-66
2022/10/26 01:13:00;;;;;;;16.55;8.60;;;;;;;11.99;52.00;101681.09;7396320;19;20009;-67
2022/10/26 01:15:46;;;;;;;17.20;8.70;;;;;;;11.98;51.51;101680.31;7396366;19;19998;-68
2022/10/26 01:18:26;;;;;;;15.70;7.55;;;;;;;11.84;51.88;101685.19;7393317;19;20097;-67
2022/10/26 01:21:19;;;;;;;19.40;9.43;;;;;;;11.64;52.22;101679.31;7394717;19;20337;-67
2022/10/26 01:24:22;;;;;;;20.88;8.68;;;;;;;12.00;51.30;101682.72;7397338;19;20078;-66
2022/10/26 01:26:57;;;;;;;17.77;7.68;;;;;;;11.84;51.75;101691.47;7395955;19;19995;-67
2022/10/26 01:30:00;;;;;;;21.15;8.80;;;;;;;11.76;51.51;101688.75;7394764;19;20078;-66
2022/10/26 01:32:32;;;;;;;17.25;8.30;;;;;;;11.93;51.20;101676.97;7396574;19;19998;-66
2022/10/26 01:35:20;;;;;;;16.55;8.55;;;;;;;12.05;50.85;101679.78;7396898;19;20318;-66
2022/10/26 01:38:24;;;;;;;18.25;7.85;;;;;;;12.05;50.43;101668.84;7396208;19;20013;-65
2022/10/26 01:41:18;;;;;;;17.90;8.07;;;;;;;11.98;50.69;101669.38;7390483;19;20005;-65
2022/10/26 01:43:58;;;;;;;17.00;8.60;;;;;;;11.97;50.78;101666.94;7395900;19;19995;-66
2022/10/26 01:46:26;;;;;;;14.40;7.97;;;;;;;11.99;50.77;101667.41;7393289;19;20007;-65
2022/10/26 01:49:00;;;;;;;14.63;8.00;;;;;;;12.09;50.68;101658.84;7394965;19;20105;-65
2022/10/26 01:51:27;;;;;;;16.70;7.65;;;;;;;11.94;50.78;101660.22;7395394;19;20002;-65
2022/10/26 01:53:53;;;;;;;15.02;8.10;;;;;;;11.66;51.26;101663.38;7396124;19;20006;-65
2022/10/26 01:56:22;;;;;;;15.50;7.93;;;;;;;11.53;51.77;101663.59;7393926;19;20009;-66
2022/10/26 01:59:09;;;;;;;14.43;8.27;;;;;;;11.56;51.38;101661.00;7392685;19;20077;-66
2022/10/26 02:01:43;;;;;;;16.30;8.30;;;;;;;11.66;51.45;101668.03;7395768;19;20012;-66
2022/10/26 02:04:35;;;;;;;20.27;8.27;;;;;;;11.78;51.01;101661.88;7395182;19;20014;-66
2022/10/26 02:07:24;;;;;;;17.73;9.05;;;;;;;11.93;51.09;101660.56;7394947;19;20508;-66
2022/10/26 02:09:55;;;;;;;18.40;7.68;;;;;;;11.98;50.56;101657.63;7392113;19;20074;-67
2022/10/26 02:12:40;;;;;;;16.50;8.02;;;;;;;11.96;50.22;101649.75;7395358;19;19999;-66
2022/10/26 02:15:21;;;;;;;15.13;7.93;;;;;;;11.90;50.54;101650.25;7395315;19;20070;-67
2022/10/26 02:17:57;;;;;;;17.95;7.95;;;;;;;11.89;50.59;101644.00;7394767;19;20031;-66
2022/10/26 02:20:30;;;;;;;15.00;7.93;;;;;;;11.94;49.94;101643.81;7392442;19;20002;-66
2022/10/26 02:22:59;;;;;;;14.70;8.27;;;;;;;11.85;50.18;101643.84;7393891;19;20013;-66
2022/10/26 02:25:29;;;;;;;18.15;8.45;;;;;;;11.79;50.61;101642.41;7392799;19;19998;-66
2022/10/26 02:28:08;;;;;;;18.30;8.90;;;;;;;11.82;50.15;101639.00;7395448;19;20078;-67
2022/10/26 02:30:36;;;;;;;17.33;8.63;;;;;;;11.45;50.93;101630.47;7392850;19;20014;-66
2022/10/26 02:33:05;;;;;;;15.20;7.30;;;;;;;11.49;50.80;101634.16;7393356;19;20009;-66
2022/10/26 02:35:34;;;;;;;15.60;8.27;;;;;;;11.60;50.52;101637.31;7394296;19;20006;-67
2022/10/26 02:38:03;;;;;;;14.40;7.35;;;;;;;11.63;50.01;101630.41;7393728;19;20002;-66
2022/10/26 02:40:31;;;;;;;16.60;9.73;;;;;;;11.64;50.15;101632.03;7389531;19;20006;-66
2022/10/26 02:43:01;;;;;;;16.83;9.23;;;;;;;11.66;49.95;101627.81;7391707;19;20776;-67
2022/10/26 02:45:33;;;;;;;18.75;10.45;;;;;;;11.67;49.84;101621.22;7390829;19;20483;-67
2022/10/26 02:47:59;;;;;;;19.95;11.07;;;;;;;11.70;49.65;101614.28;7390938;19;20011;-67
2022/10/26 02:51:08;;;;;;;20.33;11.20;;;;;;;11.56;49.24;101611.78;7391584;19;20011;-67
2022/10/26 02:53:50;;;;;;;19.08;11.65;;;;;;;11.60;49.29;101609.97;7392805;19;20066;-68
2022/10/26 02:56:24;;;;;;;21.25;11.82;;;;;;;11.53;49.54;101617.91;7392880;19;19999;-67
2022/10/26 02:58:57;;;;;;;20.10;10.63;;;;;;;11.52;49.70;101612.75;7390653;19;20023;-67
2022/10/26 03:01:23;;;;;;;19.02;9.73;;;;;;;11.52;49.85;101610.81;7393300;19;20331;-67
2022/10/26 03:03:49;;;;;;;16.48;9.70;;;;;;;11.32;49.87;101609.59;7391688;19;20003;-67
2022/10/26 03:06:22;;;;;;;20.92;10.38;;;;;;;10.96;51.21;101616.28;7391955;19;20014;-67
2022/10/26 03:08:48;;;;;;;18.85;9.20;;;;;;;11.19;50.55;101602.41;7391470;19;20354;-67
2022/10/26 03:11:13;;;;;;;18.75;10.00;;;;;;;11.36;50.27;101599.63;7391026;19;19999;-67
2022/10/26 03:13:39;;;;;;;18.02;9.27;;;;;;;11.48;49.88;101596.22;7392876;19;20025;-67
2022/10/26 03:16:05;;;;;;;16.48;7.55;;;;;;;11.45;49.90;101599.59;7392550;19;20002;-67
2022/10/26 03:18:30;;;;;;;12.95;6.50;;;;;;;11.38;49.83;101594.63;7390857;19;20006;-68
2022/10/26 03:20:56;;;;;;;15.57;7.40;;;;;;;11.44;49.75;101601.53;7391475;19;20030;-67
2022/10/26 03:23:21;;;;;;;12.40;6.90;;;;;;;11.40;49.87;101588.84;7392048;19;20498;-67
2022/10/26 03:25:47;;;;;;;15.93;6.93;;;;;;;11.42;49.92;101592.03;7392315;19;20005;-67
2022/10/26 03:28:13;;;;;;;15.57;7.72;;;;;;;11.39;49.82;101588.06;7390226;19;20033;-66
2022/10/26 03:30:38;;;;;;;15.27;7.70;;;;;;;11.18;50.50;101592.63;7389018;19;20010;-67
2022/10/26 03:33:04;;;;;;;16.13;7.53;;;;;;;11.12;50.83;101602.91;7391083;19;20003;-67
2022/10/26 03:35:30;;;;;;;14.73;7.55;;;;;;;11.20;50.77;101595.81;7390339;19;20005;-67
2022/10/26 03:37:55;;;;;;;18.70;8.90;;;;;;;11.05;50.89;101600.66;7389518;19;20017;-67
2022/10/26 03:40:21;;;;;;;13.88;8.20;;;;;;;10.86;51.47;101592.06;7389227;19;20003;-66
2022/10/26 03:42:46;;;;;;;14.30;8.13;;;;;;;10.99;51.12;101593.78;7390399;19;20006;-66
2022/10/26 03:45:15;;;;;;;14.88;7.38;;;;;;;11.19;50.53;101599.66;7390062;19;20483;-67
2022/10/26 03:47:45;;;;;;;16.63;7.63;;;;;;;11.29;50.07;101599.34;7389079;19;20006;-67
2022/10/26 03:50:12;;;;;;;15.77;7.97;;;;;;;11.21;50.09;101597.44;7388721;19;20002;-66
2022/10/26 03:52:39;;;;;;;14.95;8.05;;;;;;;11.19;50.25;101600.50;7390713;19;20014;-67
2022/10/26 03:55:05;;;;;;;16.48;8.57;;;;;;;11.22;50.23;101594.38;7391330;19;20005;-66
2022/10/26 03:57:30;;;;;;;15.73;8.27;;;;;;;10.85;51.11;101602.16;7391121;19;20117;-66
2022/10/26 03:59:56;;;;;;;14.13;8.32;;;;;;;11.00;50.92;101598.13;7386389;19;20003;-67
2022/10/26 04:02:21;;;;;;;17.67;7.90;;;;;;;11.24;50.50;101602.25;7389104;19;20360;-67
2022/10/26 04:04:47;;;;;;;15.18;7.97;;;;;;;11.30;50.35;101601.75;7390721;19;20026;-66
2022/10/26 04:07:13;;;;;;;15.40;7.57;;;;;;;11.00;50.84;101609.03;7391193;19;20013;-67
2022/10/26 04:09:38;;;;;;;13.70;7.47;;;;;;;11.10;50.85;101608.72;7389610;19;20002;-66
2022/10/26 04:12:04;;;;;;;16.23;7.60;;;;;;;11.16;50.59;101606.59;7389601;19;20332;-66
2022/10/26 04:14:30;;;;;;;11.80;6.45;;;;;;;11.21;50.30;101608.38;7391892;19;20002;-66
2022/10/26 04:16:55;;;;;;;15.00;7.78;;;;;;;11.10;50.60;101608.72;7391100;19;20006;-66
2022/10/26 04:19:21;;;;;;;14.65;7.60;;;;;;;11.11;50.62;101613.03;7391956;19;19999;-66
2022/10/26 04:21:47;;;;;;;14.68;7.18;;;;;;;11.15;50.26;101612.41;7398568;19;20463;-66
2022/10/26 04:24:12;;;;;;;12.80;6.85;;;;;;;11.14;50.40;101617.06;7398557;19;20074;-65
2022/10/26 04:26:38;;;;;;;11.80;6.30;;;;;;;11.14;49.97;101618.97;7395942;19;20001;-66
2022/10/26 04:29:05;;;;;;;12.32;5.90;;;;;;;11.03;49.99;101618.53;7396435;19;20005;-65
2022/10/26 04:31:32;;;;;;;12.35;5.68;;;;;;;11.06;49.82;101612.41;7397865;19;20031;-66
2022/10/26 04:33:57;;;;;;;10.77;5.70;;;;;;;11.02;49.83;101611.44;7397872;19;20478;-66
2022/10/26 04:36:29;;;;;;;11.93;5.10;;;;;;;11.06;49.79;101612.41;7397998;19;20005;-67
2022/10/26 04:38:55;;;;;;;11.48;4.80;;;;;;;10.95;49.66;101614.69;7395039;19;20011;-68
2022/10/26 04:41:20;;;;;;;12.80;5.10;;;;;;;10.90;50.15;101617.56;7393381;19;19991;-67
2022/10/26 04:43:46;;;;;;;9.70;5.00;;;;;;;10.91;50.10;101611.00;7397535;19;19999;-67
2022/10/26 04:46:13;;;;;;;9.45;4.80;;;;;;;10.86;49.86;101619.38;7396523;19;20010;-67
2022/10/26 04:48:39;;;;;;;10.77;5.50;;;;;;;10.35;50.79;101619.81;7393739;19;20439;-67
2022/10/26 04:51:04;;;;;;;10.48;5.60;;;;;;;10.14;51.43;101618.84;7395117;19;20018;-67
2022/10/26 04:53:30;;;;;;;9.85;4.85;;;;;;;10.51;50.95;101613.88;7395845;19;20010;-66
2022/10/26 04:55:57;;;;;;;9.82;4.97;;;;;;;10.70;50.09;101619.00;7395265;19;20462;-68
2022/10/26 04:58:23;;;;;;;12.38;5.88;;;;;;;10.73;50.06;101607.44;7395534;19;20002;-67
2022/10/26 05:00:48;;;;;;;12.75;5.75;;;;;;;10.72;49.59;101605.88;7394965;19;20007;-68
2022/10/26 05:03:14;;;;;;;14.23;5.35;;;;;;;10.34;50.32;101606.50;7397760;19;20022;-68
2022/10/26 05:05:39;;;;;;;11.90;5.90;;;;;;;10.08;51.08;101609.19;7393961;19;19999;-67
2022/10/26 05:08:05;;;;;;;10.90;5.88;;;;;;;9.84;51.38;101615.06;7396048;19;20499;-68
2022/10/26 05:10:31;;;;;;;11.88;5.03;;;;;;;10.14;51.17;101613.38;7394742;19;20003;-68
2022/10/26 05:12:59;;;;;;;11.05;5.43;;;;;;;10.41;50.36;101608.75;7396636;19;20081;-65
2022/10/26 05:15:25;;;;;;;10.05;5.38;;;;;;;10.50;50.14;101595.88;7395661;19;19999;-64
2022/10/26 05:18:00;;;;;;;11.55;5.40;;;;;;;10.60;49.70;101601.03;7397233;19;20003;-65
2022/10/26 05:20:30;;;;;;;10.60;5.75;;;;;;;10.64;49.50;101604.72;7392464;19;20083;-66
2022/10/26 05:22:57;;;;;;;11.00;5.68;;;;;;;10.64;49.67;101596.53;7395681;19;20003;-66
2022/10/26 05:25:24;;;;;;;10.50;5.75;;;;;;;10.37;49.89;101592.22;7392694;19;20066;-63
2022/10/26 05:27:49;;;;;;;11.20;5.35;;;;;;;10.04;50.87;101595.38;7394602;19;20010;-65
2022/10/26 05:30:15;;;;;;;10.95;5.85;;;;;;;10.16;50.80;101592.03;7392057;19;20485;-65
2022/10/26 05:32:40;;;;;;;10.60;6.35;;;;;;;10.33;50.32;101586.56;7397518;19;20586;-65
2022/10/26 05:35:06;;;;;;;11.75;6.13;;;;;;;10.18;50.68;101589.78;7396021;19;19995;-64
2022/10/26 05:37:32;;;;;;;9.80;5.50;;;;;;;10.40;50.37;101597.00;7396526;19;20003;-66
2022/10/26 05:39:57;;;;;;;13.20;6.38;;;;;;;10.55;49.86;101595.72;7392960;19;20458;-65
2022/10/26 05:42:24;;;;;;;13.82;6.20;;;;;;;10.42;49.85;101583.03;7396006;19;20316;-64
2022/10/26 05:44:50;;;;;;;12.75;6.32;;;;;;;10.58;49.57;101592.34;7396118;19;20011;-65
2022/10/26 05:47:15;;;;;;;11.02;5.70;;;;;;;10.57;49.77;101599.75;7392484;19;20030;-65
2022/10/26 05:49:41;;;;;;;13.77;6.10;;;;;;;10.30;50.15;101592.69;7392351;19;20062;-65
2022/10/26 05:52:07;;;;;;;11.60;5.82;;;;;;;10.01;51.13;101594.06;7395450;19;19994;-65
2022/10/26 05:54:32;;;;;;;10.98;6.03;;;;;;;9.96;50.95;101596.97;7394604;19;20002;-65
2022/10/26 05:56:58;;;;;;;11.82;6.05;;;;;;;10.33;50.47;101597.50;7395423;19;20088;-64
2022/10/26 05:59:24;;;;;;;11.88;6.20;;;;;;;10.49;49.87;101599.75;7392175;19;20435;-64
2022/10/26 06:02:25;;;;;;;13.20;6.25;;;;;;;10.23;50.03;101600.53;7395242;19;19991;-64
2022/10/26 06:04:52;;;;;;;14.60;5.93;;;;;;;10.27;50.30;101601.50;7392533;19;20002;-64
2022/10/26 06:07:21;;;;;;;12.82;6.35;;;;;;;10.37;50.06;101603.94;7395368;19;20326;-65
2022/10/26 06:09:47;;;;;;;11.93;5.55;;;;;;;10.37;50.04;101603.94;7391052;19;20009;-65
2022/10/26 06:12:14;;;;;;;15.05;5.50;;;;;;;10.32;49.92;101611.47;7393446;19;20019;-64
2022/10/26 06:14:40;;;;;;;10.65;5.32;;;;;;;10.29;49.67;101610.19;7395276;19;20061;-65
2022/10/26 06:17:49;;;;;;;12.88;5.57;;;;;;;10.36;49.36;101618.69;7393156;19;20003;-65
2022/10/26 06:20:31;;;;;;;15.88;5.70;;;;;;;10.12;49.82;101618.34;7389473;19;20071;-65
2022/10/26 06:23:20;;;;;;;13.30;5.95;;;;;;;9.88;50.31;101622.28;7394946;19;19995;-65
2022/10/26 06:25:56;;;;;;;10.75;5.50;;;;;;;10.07;50.20;101616.56;7394317;19;20493;-65
2022/10/26 06:28:49;;;;;;;11.43;5.05;;;;;;;10.20;49.53;101609.34;7393116;19;20353;-64
2022/10/26 06:31:15;;;;;;;11.40;5.65;;;;;;;10.31;49.21;101607.94;7391792;19;20002;-65
2022/10/26 06:33:41;;;;;;;12.32;6.18;;;;;;;10.40;49.02;101609.84;7392612;19;20479;-65
2022/10/26 06:36:07;;;;;;;12.05;5.90;;;;;;;10.35;49.14;101608.91;7394086;19;20062;-64
2022/10/26 06:38:35;;;;;;;11.45;5.35;;;;;;;10.14;49.76;101610.66;7392830;19;20415;-65
2022/10/26 06:41:01;;;;;;;11.52;5.70;;;;;;;9.83;50.60;101622.44;7390967;19;20009;-64
2022/10/26 06:43:31;;;;;;;11.38;6.40;;;;;;;9.74;50.93;101627.84;7394528;19;20014;-64
2022/10/26 06:46:08;;;;;;;12.13;6.28;;;;;;;9.61;51.36;101635.00;7391064;19;20459;-65
2022/10/26 06:48:55;;;;;;;12.85;6.15;;;;;;;9.60;51.60;101641.59;7392990;19;20029;-65
2022/10/26 06:51:22;;;;;;;13.40;6.43;;;;;;;9.86;51.59;101642.81;7389539;19;20026;-65
2022/10/26 06:53:57;;;;;;;12.57;5.88;;;;;;;10.27;50.37;101637.00;7394330;19;20010;-64
2022/10/26 06:56:24;;;;;;;11.43;6.18;;;;;;;10.40;49.96;101634.44;7393826;19;20035;-64
2022/10/26 06:58:53;;;;;;;13.27;5.97;;;;;;;10.45;50.05;101640.53;7391029;19;20062;-64
2022/10/26 07:01:19;;;;;;;10.02;5.35;;;;;;;10.53;50.00;101645.19;7391666;19;20012;-63
2022/10/26 07:03:44;;;;;;;10.63;5.82;;;;;;;10.49;50.21;101638.78;7393617;19;20038;-63
2022/10/26 07:06:10;;;;;;;12.18;5.97;;;;;;;10.56;50.08;101643.75;7392049;19;19998;-65
2022/10/26 07:08:35;;;;;;;9.88;5.60;;;;;;;10.69;49.79;101647.47;7391504;19;19998;-65
2022/10/26 07:11:01;;;;;;;12.05;6.13;;;;;;;10.43;50.41;101650.16;7391060;19;20015;-64
2022/10/26 07:13:27;;;;;;;13.73;6.95;;;;;;;10.33;51.10;101643.88;7393748;19;20016;-65
2022/10/26 07:15:52;;;;;;;13.43;6.47;;;;;;;10.29;51.34;101651.09;7393599;19;19998;-65
2022/10/26 07:18:18;;;;;;;12.60;6.15;;;;;;;10.29;51.60;101650.31;7391478;19;19994;-66
2022/10/26 07:20:43;;;;;;;14.25;6.35;;;;;;;10.57;51.21;101648.09;7391606;19;20067;-67
2022/10/26 07:23:12;;;;;;;14.77;6.00;;;;;;;10.78;50.82;101661.13;7392888;19;20007;-67
2022/10/26 07:25:39;;;;;;;15.27;6.70;;;;;;;10.70;51.24;101655.34;7392696;19;19999;-66
2022/10/26 07:28:06;;;;;;;12.75;6.47;;;;;;;10.85;51.15;101650.53;7391223;19;20012;-66
2022/10/26 07:30:32;;;;;;;14.13;6.72;;;;;;;11.02;50.90;101644.22;7389574;19;20470;-66
2022/10/26 07:33:09;;;;;;;12.45;7.65;;;;;;;11.14;51.26;101644.38;7392009;19;20069;-66
2022/10/26 07:35:35;;;;;;;14.00;7.57;;;;;;;11.33;50.67;101644.00;7392719;19;20025;-66
2022/10/26 07:38:01;;;;;;;16.23;7.05;;;;;;;11.28;51.27;101641.47;7388884;19;20003;-66
2022/10/26 07:40:27;;;;;;;14.35;7.35;;;;;;;11.21;51.79;101641.16;7389344;19;20001;-64
2022/10/26 07:42:56;;;;;;;17.35;7.75;;;;;;;11.25;52.00;101639.38;7391909;19;20077;-64
2022/10/26 07:45:22;;;;;;;15.55;7.22;;;;;;;11.36;52.05;101637.91;7393000;19;20462;-64
2022/10/26 07:47:48;;;;;;;16.75;7.57;;;;;;;11.51;52.13;101639.31;7389200;19;19995;-63
2022/10/26 07:50:14;;;;;;;16.92;8.35;;;;;;;11.71;51.79;101637.78;7389453;19;20002;-64
2022/10/26 07:52:40;;;;;;;14.30;7.32;;;;;;;11.89;51.83;101633.06;7390444;19;19990;-64
2022/10/26 07:55:11;;;;;;;15.93;8.00;;;;;;;12.04;51.66;101634.44;7389070;19;19991;-65
2022/10/26 07:57:37;;;;;;;15.75;7.68;;;;;;;12.10;51.69;101627.59;7389996;19;20321;-64
2022/10/26 08:00:05;;;;;;;18.00;8.18;;;;;;;12.14;51.79;101634.03;7389269;19;19995;-64
2022/10/26 08:02:31;;;;;;;17.55;7.93;;;;;;;12.21;51.64;101637.03;7390611;19;20000;-68
2022/10/26 08:04:57;;;;;;;18.13;8.43;;;;;;;12.32;51.75;101639.38;7391390;19;20018;-69
2022/10/26 08:07:24;;;;;;;15.77;8.30;;;;;;;12.32;51.65;101640.16;7389617;19;20002;-69
2022/10/26 08:09:50;;;;;;;15.75;8.52;;;;;;;12.44;51.83;101633.19;7388763;19;19994;-69
2022/10/26 08:12:16;;;;;;;19.45;7.85;;;;;;;12.44;51.86;101638.66;7391204;19;20002;-68
2022/10/26 08:14:42;;;;;;;15.52;7.90;;;;;;;12.51;52.10;101630.72;7391041;19;20009;-68
2022/10/26 08:17:08;;;;;;;17.67;8.25;;;;;;;12.59;52.20;101633.38;7385972;19;20003;-65
2022/10/26 08:19:34;;;;;;;16.58;7.72;;;;;;;12.67;52.06;101628.16;7388400;19;19999;-67
2022/10/26 08:22:00;;;;;;;15.23;7.78;;;;;;;12.76;52.40;101626.16;7391025;19;20011;-72
2022/10/26 08:24:25;;;;;;;19.17;7.55;;;;;;;12.85;51.94;101624.13;7388497;19;20013;-66
2022/10/26 08:26:51;;;;;;;16.45;8.40;;;;;;;12.88;51.86;101628.19;7390937;19;19998;-65
2022/10/26 08:29:17;;;;;;;15.55;8.18;;;;;;;12.88;52.46;101622.69;7388969;19;20019;-65
2022/10/26 08:31:42;;;;;;;19.55;7.40;;;;;;;12.78;52.34;101629.34;7390803;19;20465;-66
2022/10/26 08:34:08;;;;;;;12.90;6.95;;;;;;;12.85;52.60;101629.59;7390608;19;20018;-65
2022/10/26 08:36:34;;;;;;;16.15;7.72;;;;;;;12.82;52.60;101635.75;7390463;19;20482;-65
2022/10/26 08:38:59;;;;;;;13.85;7.57;;;;;;;12.82;52.60;101634.97;7388041;19;20007;-66
2022/10/26 08:41:42;;;;;;;12.85;6.78;;;;;;;12.85;52.60;101628.81;7389798;19;19995;-67
2022/10/26 08:44:26;;;;;;;13.82;7.07;;;;;;;12.89;52.17;101619.63;7390116;19;19999;-67
2022/10/26 08:46:59;;;;;;;15.23;7.03;;;;;;;12.92;52.22;101624.41;7391630;19;20011;-66
2022/10/26 08:49:40;;;;;;;13.70;7.18;;;;;;;12.99;52.68;101623.84;7388902;19;20006;-63
2022/10/26 08:52:12;;;;;;;19.08;8.23;;;;;;;12.97;52.94;101626.13;7390038;19;20003;-62
2022/10/26 08:54:48;;;;;;;17.02;7.07;;;;;;;13.04;52.51;101620.94;7390612;19;19999;-62
2022/10/26 08:57:21;;;;;;;16.85;6.93;;;;;;;13.14;52.48;101630.63;7387764;19;20007;-63
2022/10/26 08:59:53;;;;;;;14.90;6.80;;;;;;;13.28;52.14;101617.44;7384927;19;20545;-63
2022/10/26 09:02:19;;;;;;;17.35;7.68;;;;;;;13.38;52.17;101623.63;7390103;19;20466;-62
2022/10/26 09:04:45;;;;;;;12.63;7.13;;;;;;;13.46;52.36;101618.03;7391590;19;20461;-64
2022/10/26 09:07:23;;;;;;;17.73;8.07;;;;;;;13.52;52.13;101615.84;7395766;19;20428;-63
2022/10/26 09:10:04;;;;;;;13.95;7.00;;;;;;;13.58;51.81;101608.22;7394841;19;20062;-63
2022/10/26 09:13:23;;;;;;;15.40;7.75;;;;;;;13.68;52.04;101611.28;7395963;19;20011;-62
2022/10/26 09:16:21;;;;;;;15.45;6.72;;;;;;;13.76;51.95;101619.75;7392705;19;20011;-63
2022/10/26 09:19:20;;;;;;;15.63;7.63;;;;;;;13.86;51.67;101616.56;7388846;19;20018;-63
2022/10/26 09:22:15;;;;;;;15.50;7.07;;;;;;;13.93;51.81;101622.28;7396806;19;20252;-67
2022/10/26 09:24:51;;;;;;;14.80;6.88;;;;;;;14.00;51.70;101621.72;7393498;19;20317;-64
2022/10/26 09:27:29;;;;;;;12.77;7.47;;;;;;;14.14;51.42;101618.59;7396297;19;20025;-65
2022/10/26 09:29:58;;;;;;;16.05;7.22;;;;;;;14.24;51.27;101621.69;7393938;19;20010;-65
2022/10/26 09:32:41;;;;;;;14.40;6.82;;;;;;;14.34;51.15;101623.13;7396566;19;19994;-65
2022/10/26 09:35:25;;;;;;;14.15;6.68;;;;;;;14.40;51.09;101613.50;7395680;19;20482;-63
2022/10/26 09:37:56;;;;;;;;;;;;;;;14.40;51.64;101608.00;7396612;19;20007;-64
2022/10/26 09:40:30;;;;;;;15.13;6.60;;;;;;;14.44;50.89;101603.44;7391360;19;19926;-65
2022/10/26 09:42:56;;;;;;;14.05;7.13;;;;;;;14.48;50.89;101600.78;7396398;19;20016;-64
2022/10/26 09:45:28;;;;;;;13.68;7.05;;;;;;;14.47;51.09;101609.38;7396133;19;20006;-65
2022/10/26 09:47:57;;;;;;;18.83;7.35;;;;;;;14.50;51.08;101603.97;7390571;19;20028;-64
2022/10/26 09:50:28;;;;;;;15.00;7.00;;;;;;;14.47;51.01;101604.69;7394488;19;20006;-65
2022/10/26 09:52:54;;;;;;;16.88;6.55;;;;;;;14.51;51.11;101602.84;7395761;19;19999;-65
2022/10/26 09:55:21;;;;;;;15.43;6.68;;;;;;;14.53;51.03;101599.72;7395915;19;20005;-66
2022/10/26 09:57:51;;;;;;;15.73;6.65;;;;;;;14.55;51.03;101594.69;7395059;19;20017;-67
2022/10/26 10:00:19;;;;;;;11.88;6.25;;;;;;;14.60;51.29;101594.44;7391350;19;20455;-66
2022/10/26 10:02:50;;;;;;;18.08;6.60;;;;;;;14.60;51.12;101595.25;7395529;19;19995;-67
2022/10/26 10:05:30;;;;;;;16.13;6.57;;;;;;;14.61;51.03;101607.84;7395977;19;20458;-67
2022/10/26 10:08:18;;;;;;;17.88;6.50;;;;;;;14.69;50.96;101608.03;7394354;19;19998;-64
2022/10/26 10:10:58;;;;;;;16.52;6.32;;;;;;;14.72;51.11;101602.63;7393133;19;20010;-65
2022/10/26 10:13:27;;;;;;;11.70;5.93;;;;;;;14.75;50.97;101612.94;7394994;19;19991;-65
2022/10/26 10:15:57;;;;;;;14.15;6.60;;;;;;;14.82;50.71;101606.06;7393431;19;20009;-65
2022/10/26 10:18:23;;;;;;;14.75;6.05;;;;;;;14.87;50.57;101601.09;7391716;19;20041;-65
2022/10/26 10:20:57;;;;;;;11.00;5.55;;;;;;;14.95;50.40;101610.34;7393126;19;20058;-64
2022/10/26 10:23:31;;;;;;;12.98;5.53;;;;;;;15.01;50.72;101619.91;7392801;19;20002;-65
2022/10/26 10:26:00;;;;;;;14.48;5.85;;;;;;;15.03;50.61;101617.63;7394584;19;20006;-64
2022/10/26 10:28:27;;;;;;;10.63;5.32;;;;;;;15.08;50.39;101617.38;7392780;19;19998;-64
2022/10/26 10:30:59;;;;;;;12.23;4.82;;;;;;;15.07;50.45;101625.97;7390487;19;20627;-63
2022/10/26 10:33:35;;;;;;;13.48;5.68;;;;;;;15.14;50.18;101618.69;7394195;19;20007;-64
2022/10/26 10:36:04;;;;;;;11.65;5.20;;;;;;;15.18;50.01;101619.59;7395205;19;19999;-65
2022/10/26 10:38:37;;;;;;;12.18;5.20;;;;;;;15.14;50.41;101618.69;7392112;19;20026;-65
2022/10/26 10:41:03;;;;;;;11.63;5.47;;;;;;;15.11;50.22;101624.94;7390319;19;20107;-65
2022/10/26 10:43:29;;;;;;;12.93;5.18;;;;;;;15.17;50.26;101629.00;7394075;19;20003;-63
2022/10/26 10:45:57;;;;;;;10.15;5.30;;;;;;;15.23;50.28;101624.06;7392286;19;20078;-63
2022/10/26 10:48:28;;;;;;;13.15;5.43;;;;;;;15.23;49.96;101632.31;7391171;19;20122;-63
2022/10/26 10:51:04;;;;;;;12.20;5.65;;;;;;;15.20;50.59;101624.75;7392727;19;20470;-64
2022/10/26 10:53:42;;;;;;;11.32;5.50;;;;;;;15.16;50.66;101627.41;7393128;19;20355;-63
2022/10/26 10:56:26;;;;;;;12.80;5.30;;;;;;;15.13;50.71;101630.88;7393393;19;20062;-63
2022/10/26 10:58:56;;;;;;;14.82;5.85;;;;;;;15.12;50.84;101633.97;7390130;19;20014;-63
2022/10/26 11:01:27;;;;;;;14.85;6.70;;;;;;;15.07;50.89;101640.50;7391960;19;19999;-63
2022/10/26 11:04:21;;;;;;;13.70;6.03;;;;;;;15.04;51.17;101646.72;7393296;19;20002;-63
2022/10/26 11:06:48;;;;;;;10.55;5.68;;;;;;;15.07;51.02;101645.22;7393428;19;20081;-64
2022/10/26 11:09:24;;;;;;;12.40;6.40;;;;;;;15.07;51.15;101645.22;7389399;19;20388;-64
2022/10/26 11:11:55;;;;;;;11.13;5.57;;;;;;;15.06;50.89;101652.66;7393536;19;20026;-65
2022/10/26 11:14:27;;;;;;;11.32;5.65;;;;;;;15.15;50.83;101652.50;7393647;19;20003;-65
2022/10/26 11:17:22;;;;;;;14.75;6.22;;;;;;;15.26;50.78;101641.78;7393224;19;20010;-64
2022/10/26 11:20:23;;;;;;;15.13;5.93;;;;;;;15.34;50.70;101654.56;7390372;19;19999;-64
2022/10/26 11:22:52;;;;;;;15.85;6.60;;;;;;;15.45;50.56;101649.34;7391455;19;20021;-66
2022/10/26 11:25:27;;;;;;;11.90;6.30;;;;;;;15.51;50.39;101645.16;7392452;19;20423;-65
2022/10/26 11:28:00;;;;;;;13.55;6.45;;;;;;;15.52;50.49;101650.31;7392346;19;20009;-65
2022/10/26 11:30:29;;;;;;;12.57;6.72;;;;;;;15.60;50.23;101651.31;7391982;19;20021;-65
2022/10/26 11:33:00;;;;;;;11.25;6.10;;;;;;;15.68;50.19;101650.34;7393017;19;20126;-65
2022/10/26 11:35:31;;;;;;;12.30;6.15;;;;;;;15.75;50.20;101658.00;7393015;19;20003;-65